UAL1494 KEWR-PHNL
Flight info
| Callsign | UAL1494 |
|---|---|
| Flight time | N/A |
| Altitude | 40000 |
| Route | DEVL1 NEWEL J60 GYNTS BEERS T434 SCAAM ZIINE GIJ V228 THORR UMUZI V228 FARMM V24 KRENA SMULA GRIFT T302 DBQ V100 DEWAR VIGGR Q122 LCU J94 BAM J32 SAC V150 COMMO BDEGA JESTE ROVUE BEBOP BITTA INOYI1 |
| Aircraft | B78X/H-SDE1E2E3FGHIJ2J3J4J5M1RWXY/LB1D1 |
Departure
| Time | 2026-04-23 14:15 |
|---|---|
| Airport | Newark Liberty International Airport (KEWR) |
Arrival
| Time | N/A |
|---|---|
| Airport | Daniel K. Inouye International Airport (PHNL) |
| Time | Latitude | Longitude | Altitude | Speed | Heading |
|---|---|---|---|---|---|
| 2026-04-23 13:55 | 40.69913 | -74.17771 | 27 ft | 0 kts | 242° |
| 2026-04-23 14:06 | 40.69915 | -74.17768 | 27 ft | 2 kts | 242° |
| 2026-04-23 14:06 | 40.69927 | -74.17736 | 25 ft | 6 kts | 242° |
| 2026-04-23 14:07 | 40.69943 | -74.17713 | 28 ft | 1 kts | 158° |
| 2026-04-23 14:07 | 40.69953 | -74.17717 | 27 ft | 0 kts | 104° |
| 2026-04-23 14:08 | 40.69952 | -74.17710 | 28 ft | 1 kts | 104° |
| 2026-04-23 14:09 | 40.69951 | -74.17709 | 28 ft | 0 kts | 104° |
| 2026-04-23 14:09 | 40.69953 | -74.17703 | 29 ft | 3 kts | 84° |
| 2026-04-23 14:10 | 40.70015 | -74.17680 | 30 ft | 20 kts | 12° |
| 2026-04-23 14:10 | 40.70054 | -74.17510 | 30 ft | 27 kts | 98° |
| 2026-04-23 14:10 | 40.70030 | -74.17181 | 29 ft | 46 kts | 95° |
| 2026-04-23 14:10 | 40.69998 | -74.16706 | 26 ft | 37 kts | 95° |
| 2026-04-23 14:11 | 40.69938 | -74.16579 | 24 ft | 15 kts | 198° |
| 2026-04-23 14:11 | 40.69764 | -74.16689 | 26 ft | 42 kts | 206° |
| 2026-04-23 14:11 | 40.69432 | -74.16902 | 28 ft | 57 kts | 206° |
| 2026-04-23 14:11 | 40.69086 | -74.17121 | 26 ft | 55 kts | 205° |
| 2026-04-23 14:12 | 40.68758 | -74.17327 | 30 ft | 50 kts | 205° |
| 2026-04-23 14:12 | 40.68438 | -74.17529 | 30 ft | 53 kts | 206° |
| 2026-04-23 14:12 | 40.68116 | -74.17737 | 30 ft | 50 kts | 206° |
| 2026-04-23 14:12 | 40.67840 | -74.17906 | 28 ft | 22 kts | 190° |
| 2026-04-23 14:13 | 40.67822 | -74.17904 | 28 ft | 0 kts | 173° |
| 2026-04-23 14:13 | 40.67809 | -74.17887 | 27 ft | 10 kts | 131° |
| 2026-04-23 14:13 | 40.67843 | -74.17756 | 29 ft | 26 kts | 28° |
| 2026-04-23 14:14 | 40.68167 | -74.17546 | 29 ft | 81 kts | 26° |
| 2026-04-23 14:14 | 40.68837 | -74.17122 | 29 ft | 134 kts | 26° |
| 2026-04-23 14:14 | 40.69821 | -74.16513 | 30 ft | 173 kts | 23° |
| 2026-04-23 14:14 | 40.70964 | -74.15847 | 321 ft | 185 kts | 25° |
| 2026-04-23 14:15 | 40.72209 | -74.15135 | 808 ft | 203 kts | 22° |
| 2026-04-23 14:15 | 40.73490 | -74.14369 | 1710 ft | 198 kts | 23° |
| 2026-04-23 14:15 | 40.74706 | -74.13559 | 2729 ft | 196 kts | 25° |
| 2026-04-23 14:15 | 40.75940 | -74.12641 | 3446 ft | 214 kts | 28° |
| 2026-04-23 14:16 | 40.76521 | -74.12172 | 3736 ft | 221 kts | 28° |
| 2026-04-23 14:16 | 40.76638 | -74.12075 | 3801 ft | 218 kts | 29° |